createdAt,value
2018-07-23T09:40:27.648Z,11.00
2018-07-23T09:42:57.073Z,9.57
2018-07-23T09:45:27.554Z,9.37
2018-07-23T09:47:57.077Z,11.10
2018-07-23T09:50:26.577Z,12.00
2018-07-23T09:52:56.039Z,11.67
2018-07-23T09:55:25.718Z,10.37
2018-07-23T09:57:55.173Z,11.47
2018-07-23T10:00:29.412Z,13.93
2018-07-23T10:02:59.930Z,12.40
2018-07-23T10:05:29.992Z,12.60
2018-07-23T10:08:00.985Z,14.33
2018-07-23T10:10:31.867Z,12.47
2018-07-23T10:13:02.351Z,13.27
2018-07-23T10:15:31.739Z,12.60
2018-07-23T10:18:00.842Z,13.30
2018-07-23T10:20:30.456Z,10.77
2018-07-23T10:22:59.696Z,10.53
2018-07-23T10:25:29.098Z,12.93
2018-07-23T10:27:58.398Z,12.70
2018-07-23T10:30:27.595Z,11.67
2018-07-23T10:32:57.509Z,11.87
2018-07-23T10:35:27.116Z,9.67
2018-07-23T10:37:56.722Z,10.50
2018-07-23T10:40:26.107Z,11.93
2018-07-23T10:42:55.041Z,11.67
2018-07-23T10:45:23.866Z,8.00
2018-07-23T10:47:52.897Z,11.40
2018-07-23T10:50:21.644Z,11.47
2018-07-23T10:52:51.394Z,11.30
2018-07-23T10:55:20.795Z,9.63
2018-07-23T10:57:49.603Z,11.50
2018-07-23T11:00:19.429Z,12.67
2018-07-23T11:02:48.492Z,11.10
2018-07-23T11:05:17.260Z,12.43
2018-07-23T11:07:46.017Z,11.10
2018-07-23T11:10:14.681Z,8.87
2018-07-23T11:12:43.693Z,11.03
2018-07-23T11:15:12.588Z,10.57
2018-07-23T11:17:41.455Z,10.57
2018-07-23T11:20:11.692Z,10.37
2018-07-23T11:22:41.755Z,10.80
2018-07-23T11:25:38.811Z,8.40
2018-07-23T11:27:39.637Z,9.63
2018-07-23T11:30:08.652Z,8.30
2018-07-23T11:32:38.370Z,9.33
2018-07-23T11:35:07.440Z,8.13
2018-07-23T11:37:36.637Z,9.10
2018-07-23T11:40:05.716Z,9.20
2018-07-23T11:42:34.737Z,7.67
2018-07-23T11:45:04.302Z,8.40
2018-07-23T11:47:33.308Z,7.13
2018-07-23T11:50:02.931Z,6.13
2018-07-23T11:52:31.755Z,7.47
2018-07-23T11:55:01.198Z,5.27
2018-07-23T11:57:30.011Z,7.47
2018-07-23T11:59:58.778Z,5.90
2018-07-23T12:02:28.507Z,7.53
2018-07-23T12:04:58.323Z,5.90
2018-07-23T12:07:27.925Z,8.20
2018-07-23T12:09:56.917Z,7.60
2018-07-23T12:12:26.422Z,5.57
2018-07-23T12:14:55.162Z,8.40
2018-07-23T12:17:24.205Z,6.20
2018-07-23T12:19:52.794Z,6.43
2018-07-23T12:22:22.209Z,5.90
2018-07-23T12:24:50.972Z,5.93
2018-07-23T12:27:19.890Z,5.37
2018-07-23T12:29:49.211Z,6.67
2018-07-23T12:32:18.129Z,5.40
2018-07-23T12:34:46.634Z,5.10
2018-07-23T12:37:15.840Z,4.80
2018-07-23T12:39:45.170Z,4.83
2018-07-23T12:42:14.528Z,5.60
2018-07-23T12:44:44.246Z,6.07
2018-07-23T12:47:13.903Z,4.53
2018-07-23T12:49:43.459Z,4.60
2018-07-23T12:52:13.223Z,4.50
2018-07-23T12:54:42.877Z,4.87
2018-07-23T12:57:12.279Z,4.70
2018-07-23T12:59:41.425Z,4.43
2018-07-23T13:02:10.757Z,4.60
2018-07-23T13:04:40.244Z,4.23
2018-07-23T13:07:09.682Z,5.67
2018-07-23T13:09:39.187Z,4.03
2018-07-23T13:12:09.089Z,4.57
2018-07-23T13:14:38.400Z,4.33
2018-07-23T13:17:08.008Z,4.37
2018-07-23T13:19:37.408Z,3.50
2018-07-23T13:22:06.914Z,3.80
2018-07-23T13:24:36.315Z,4.10
2018-07-23T13:27:06.013Z,3.80
2018-07-23T13:29:35.528Z,3.60
2018-07-23T13:32:04.829Z,3.33
2018-07-23T13:34:34.026Z,4.00
2018-07-23T13:37:03.325Z,3.37
2018-07-23T13:39:32.833Z,3.40
2018-07-23T13:42:02.620Z,4.10
2018-07-23T13:44:33.378Z,3.77
2018-07-23T13:47:05.029Z,4.50
2018-07-23T13:49:35.455Z,3.93
2018-07-23T13:52:05.809Z,3.80
2018-07-23T13:54:36.720Z,4.80
2018-07-23T13:57:07.861Z,4.23
2018-07-23T13:59:38.595Z,3.13
2018-07-23T14:02:09.328Z,4.53
2018-07-23T14:04:40.571Z,4.10
2018-07-23T14:07:10.654Z,3.80
2018-07-23T14:09:40.192Z,4.30
2018-07-23T14:12:10.606Z,4.30
2018-07-23T14:14:40.534Z,3.80
2018-07-23T14:17:10.039Z,3.60
2018-07-23T14:19:39.646Z,2.90
2018-07-23T14:22:08.586Z,3.00
2018-07-23T14:24:37.821Z,3.43
2018-07-23T14:27:07.305Z,3.20
2018-07-23T14:29:35.899Z,3.37
2018-07-23T14:32:04.870Z,4.30
2018-07-23T14:34:33.653Z,3.80
2018-07-23T14:37:03.411Z,3.70
2018-07-23T14:39:33.143Z,3.13
2018-07-23T14:42:03.342Z,3.13
2018-07-23T14:44:33.051Z,2.87
2018-07-23T14:47:02.556Z,3.20
2018-07-23T14:49:32.471Z,3.93
2018-07-23T14:52:01.974Z,3.83
2018-07-23T14:54:31.581Z,3.43
2018-07-23T14:57:01.084Z,3.43
2018-07-23T14:59:30.385Z,3.60
2018-07-23T15:01:59.845Z,3.57
2018-07-23T15:04:29.394Z,3.83
2018-07-23T15:06:58.976Z,3.70
2018-07-23T15:09:28.813Z,3.03
2018-07-23T15:11:58.377Z,3.30
2018-07-23T15:14:27.924Z,3.93
2018-07-23T15:16:57.325Z,2.90
2018-07-23T15:19:27.023Z,3.23
2018-07-23T15:21:56.884Z,3.50
2018-07-23T15:24:26.597Z,3.13
2018-07-23T15:26:55.958Z,3.60
2018-07-23T15:29:25.875Z,2.80
2018-07-23T15:31:55.740Z,3.33
2018-07-23T15:34:25.495Z,3.20
2018-07-23T15:36:55.308Z,2.97
2018-07-23T15:39:25.242Z,3.50
2018-07-23T15:41:55.188Z,2.90
2018-07-23T15:44:24.556Z,3.30
2018-07-23T15:46:54.359Z,2.87
2018-07-23T15:49:23.123Z,3.20
2018-07-23T15:51:51.870Z,3.63
2018-07-23T15:54:21.521Z,3.40
2018-07-23T15:56:50.477Z,3.13
2018-07-23T15:59:19.190Z,2.97
2018-07-23T16:01:47.868Z,3.30
2018-07-23T16:04:16.817Z,3.20
2018-07-23T16:06:45.773Z,3.20
2018-07-23T16:09:15.406Z,3.20
2018-07-23T16:11:44.529Z,3.57
2018-07-23T16:14:13.486Z,2.80
2018-07-23T16:16:42.391Z,3.40
2018-07-23T16:19:11.557Z,3.10
2018-07-23T16:21:40.378Z,3.90
2018-07-23T16:24:09.186Z,3.27
2018-07-23T16:26:38.440Z,3.30
2018-07-23T16:29:07.628Z,4.70
2018-07-23T16:31:36.792Z,3.50
2018-07-23T16:34:05.894Z,3.13
2018-07-23T16:36:35.118Z,3.87
2018-07-23T16:39:05.736Z,3.90
2018-07-23T16:41:34.843Z,3.37
2018-07-23T16:44:03.719Z,3.23
2018-07-23T16:46:32.526Z,4.13
2018-07-23T16:49:02.307Z,4.10
2018-07-23T16:51:32.271Z,3.20
2018-07-23T16:54:01.391Z,4.13
2018-07-23T16:56:31.326Z,3.90
2018-07-23T16:59:00.641Z,3.30
2018-07-23T17:01:29.481Z,3.50
2018-07-23T17:03:58.573Z,3.40
2018-07-23T17:06:27.635Z,3.70
2018-07-23T17:08:56.581Z,4.30
2018-07-23T17:11:26.071Z,3.97
2018-07-23T17:13:54.830Z,3.10
2018-07-23T17:16:23.707Z,3.50
2018-07-23T17:18:52.556Z,3.50
2018-07-23T17:21:21.384Z,4.00
2018-07-23T17:23:50.091Z,3.13
2018-07-23T17:26:18.997Z,3.80
2018-07-23T17:28:48.175Z,3.20
2018-07-23T17:31:17.113Z,2.70
2018-07-23T17:33:46.061Z,3.40
2018-07-23T17:36:15.124Z,3.23
2018-07-23T17:38:44.906Z,3.60
2018-07-23T17:41:13.804Z,3.03
2018-07-23T17:43:42.661Z,3.30
2018-07-23T17:46:11.356Z,3.10
2018-07-23T17:48:40.168Z,2.87
2018-07-23T17:51:08.869Z,3.27
2018-07-23T17:53:37.822Z,3.13
2018-07-23T17:56:06.709Z,4.30
2018-07-23T17:58:35.657Z,3.37
2018-07-23T18:01:04.853Z,3.60
2018-07-23T18:03:33.567Z,3.77
2018-07-23T18:06:02.631Z,3.50
2018-07-23T18:08:31.597Z,3.93
2018-07-23T18:11:00.585Z,3.97
2018-07-23T18:13:30.022Z,3.47
2018-07-23T18:15:59.165Z,3.67
2018-07-23T18:18:28.189Z,4.20
2018-07-23T18:20:57.229Z,3.73
2018-07-23T18:23:26.153Z,4.00
2018-07-23T18:25:55.187Z,3.00
2018-07-23T18:28:24.007Z,4.20
2018-07-23T18:30:53.070Z,4.30
2018-07-23T18:33:21.992Z,3.83
2018-07-23T18:35:51.976Z,3.80
2018-07-23T18:38:21.721Z,3.77
2018-07-23T18:40:51.524Z,4.53
2018-07-23T18:43:21.179Z,4.20
2018-07-23T18:45:51.120Z,4.20
2018-07-23T18:50:30.877Z,4.17
2018-07-23T18:53:00.382Z,4.27
2018-07-23T18:55:29.596Z,4.53
2018-07-23T18:57:59.598Z,4.60
2018-07-23T19:00:29.203Z,4.80
2018-07-23T19:02:59.116Z,4.10
2018-07-23T19:05:29.031Z,4.03
2018-07-23T19:07:59.012Z,4.43
2018-07-23T19:10:28.693Z,3.73
2018-07-23T19:12:58.285Z,4.90
2018-07-23T19:15:28.175Z,4.40
2018-07-23T19:17:57.132Z,4.07
2018-07-23T19:20:26.345Z,4.50
2018-07-23T19:22:54.999Z,5.40
2018-07-23T19:25:23.912Z,4.13
2018-07-23T19:27:52.522Z,4.30
2018-07-23T19:30:21.240Z,5.00
2018-07-23T19:32:49.831Z,5.83
2018-07-23T19:35:18.374Z,5.33
2018-07-23T19:37:46.773Z,5.00
2018-07-23T19:40:15.188Z,5.60
2018-07-23T19:42:43.693Z,4.67
2018-07-23T19:45:12.122Z,5.40
2018-07-23T19:47:41.630Z,6.40
2018-07-23T19:50:11.099Z,5.30
2018-07-23T19:52:39.463Z,5.03
2018-07-23T19:55:08.533Z,5.80
2018-07-23T19:57:36.875Z,6.57
2018-07-23T20:00:05.181Z,6.00
2018-07-23T20:02:33.532Z,7.50
2018-07-23T20:05:02.343Z,6.70
2018-07-23T20:07:30.711Z,7.50
2018-07-23T20:09:59.020Z,7.33
2018-07-23T20:12:27.360Z,7.60
2018-07-23T20:14:55.927Z,9.13
2018-07-23T20:17:24.750Z,6.90
2018-07-23T20:19:53.032Z,7.00
2018-07-23T20:22:21.408Z,6.80
2018-07-23T20:24:49.699Z,6.57
2018-07-23T20:27:18.144Z,5.57
2018-07-23T20:29:46.592Z,6.37
2018-07-23T20:32:14.902Z,7.00
2018-07-23T20:34:43.514Z,7.07
2018-07-23T20:37:11.867Z,6.63
2018-07-23T20:39:40.892Z,8.80
2018-07-23T20:42:09.224Z,6.53
2018-07-23T20:44:37.675Z,6.90
2018-07-23T20:47:06.496Z,5.73
2018-07-23T20:49:34.812Z,7.57
2018-07-23T20:52:03.156Z,6.53
2018-07-23T20:54:31.455Z,6.40
2018-07-23T20:56:59.809Z,6.10
2018-07-23T20:59:28.507Z,6.50
2018-07-23T21:01:56.831Z,6.37
2018-07-23T21:04:25.893Z,6.23
2018-07-23T21:06:54.204Z,6.53
2018-07-23T21:09:22.552Z,6.47
2018-07-23T21:11:50.863Z,6.17
2018-07-23T21:14:19.825Z,6.00
2018-07-23T21:16:48.148Z,6.57
2018-07-23T21:19:16.451Z,6.70
2018-07-23T21:21:44.832Z,6.60
2018-07-23T21:24:13.212Z,6.53
2018-07-23T21:26:42.244Z,6.17
2018-07-23T21:29:10.572Z,5.97
2018-07-23T21:31:39.212Z,6.40
2018-07-23T21:34:07.667Z,6.40
2018-07-23T21:36:36.022Z,6.53
2018-07-23T21:39:06.308Z,6.93
2018-07-23T21:41:34.655Z,7.20
2018-07-23T21:44:02.976Z,6.00
2018-07-23T21:46:31.349Z,6.50
2018-07-23T21:48:59.649Z,7.10
2018-07-23T21:51:27.967Z,7.00
2018-07-23T21:53:56.280Z,6.97
2018-07-23T21:56:24.592Z,6.73
2018-07-23T21:58:52.912Z,6.70
2018-07-23T22:01:21.223Z,7.20
2018-07-23T22:03:49.532Z,6.93
2018-07-23T22:06:22.245Z,7.27
2018-07-23T22:08:51.240Z,7.80
2018-07-23T22:11:19.560Z,8.40
2018-07-23T22:13:47.904Z,7.97
2018-07-23T22:16:16.244Z,8.00
2018-07-23T22:18:44.648Z,7.87
2018-07-23T22:21:13.330Z,7.20
2018-07-23T22:23:41.779Z,7.27
2018-07-23T22:26:10.140Z,7.03
2018-07-23T22:28:38.452Z,6.77
2018-07-23T22:31:07.543Z,6.00
2018-07-23T22:33:35.840Z,6.63
2018-07-23T22:36:04.195Z,6.67
2018-07-23T22:38:33.401Z,6.80
2018-07-23T22:41:01.704Z,6.53
2018-07-23T22:43:30.084Z,7.10
2018-07-23T22:45:58.360Z,7.27
2018-07-23T22:48:26.687Z,7.17
2018-07-23T22:50:55.070Z,7.30
2018-07-23T22:53:23.396Z,7.60
2018-07-23T22:55:51.697Z,6.30
2018-07-23T22:58:20.027Z,6.83
2018-07-23T23:00:48.628Z,7.40
2018-07-23T23:03:16.979Z,7.23
2018-07-23T23:05:45.333Z,7.30
2018-07-23T23:08:13.656Z,8.63
2018-07-23T23:10:42.012Z,7.47
2018-07-23T23:13:10.328Z,6.63
2018-07-23T23:15:38.636Z,8.20
2018-07-23T23:18:06.959Z,7.97
2018-07-23T23:20:35.264Z,7.10
2018-07-23T23:23:03.568Z,7.33
2018-07-23T23:25:31.873Z,9.00
2018-07-23T23:28:00.192Z,8.30
2018-07-23T23:30:28.788Z,8.40
2018-07-23T23:32:57.155Z,8.77
2018-07-23T23:35:25.447Z,9.60
2018-07-23T23:37:53.923Z,8.87
2018-07-23T23:40:22.284Z,10.17
2018-07-23T23:42:50.596Z,9.47
2018-07-23T23:45:19.548Z,10.10
2018-07-23T23:47:47.856Z,8.50
2018-07-23T23:50:16.195Z,9.30
2018-07-23T23:52:44.484Z,8.73
2018-07-23T23:55:12.892Z,9.77
2018-07-23T23:57:41.244Z,9.87
